createdAt,value
2023-05-07T00:02:19.011Z,5.45
2023-05-07T00:07:23.270Z,5.40
2023-05-07T00:12:27.025Z,5.07
2023-05-07T00:17:31.749Z,5.13
2023-05-07T00:22:35.494Z,4.85
2023-05-07T00:27:38.714Z,4.65
2023-05-07T00:32:42.381Z,4.28
2023-05-07T00:37:46.362Z,4.72
2023-05-07T00:42:50.350Z,4.65
2023-05-07T00:47:59.302Z,4.80
2023-05-07T00:53:03.879Z,5.07
2023-05-07T00:58:08.465Z,5.00
2023-05-07T01:03:11.903Z,5.18
2023-05-07T01:08:17.530Z,5.05
2023-05-07T01:13:22.696Z,5.40
2023-05-07T01:18:27.827Z,5.32
2023-05-07T01:23:32.117Z,5.82
2023-05-07T01:28:35.628Z,5.57
2023-05-07T01:33:41.801Z,6.38
2023-05-07T01:38:45.621Z,6.03
2023-05-07T01:43:52.864Z,5.70
2023-05-07T01:48:56.135Z,5.90
2023-05-07T01:53:59.745Z,6.35
2023-05-07T01:59:03.317Z,6.45
2023-05-07T02:04:07.788Z,6.15
2023-05-07T02:09:11.511Z,6.32
2023-05-07T02:14:18.546Z,5.97
2023-05-07T02:19:22.521Z,6.85
2023-05-07T02:24:26.073Z,5.53
2023-05-07T02:29:30.175Z,5.93
2023-05-07T02:34:34.000Z,6.40
2023-05-07T02:39:38.588Z,5.88
2023-05-07T02:44:41.667Z,6.35
2023-05-07T02:49:44.893Z,6.45
2023-05-07T02:54:48.629Z,6.07
2023-05-07T02:59:53.258Z,6.80
2023-05-07T03:04:58.510Z,6.55
2023-05-07T03:10:02.125Z,6.53
2023-05-07T03:15:06.211Z,5.88
2023-05-07T03:20:11.218Z,5.90
2023-05-07T03:25:16.072Z,6.30
2023-05-07T03:30:19.906Z,6.43
2023-05-07T03:35:24.393Z,6.47
2023-05-07T03:40:27.967Z,5.72
2023-05-07T03:45:33.051Z,6.20
2023-05-07T03:50:45.827Z,6.40
2023-05-07T03:55:50.359Z,6.25
2023-05-07T04:00:54.551Z,5.88
2023-05-07T04:06:03.327Z,5.00
2023-05-07T04:11:09.922Z,5.50
2023-05-07T04:16:14.895Z,5.43
2023-05-07T04:21:23.549Z,5.25
2023-05-07T04:26:27.886Z,4.82
2023-05-07T04:31:32.194Z,5.00
2023-05-07T04:36:36.442Z,4.82
2023-05-07T04:41:46.713Z,4.63
2023-05-07T04:46:50.736Z,5.03
2023-05-07T04:51:54.155Z,4.90
2023-05-07T04:57:00.311Z,4.80
2023-05-07T05:02:05.854Z,4.88
2023-05-07T05:07:09.536Z,4.70
2023-05-07T05:12:13.587Z,4.28
2023-05-07T05:17:17.159Z,4.35
2023-05-07T05:22:22.004Z,5.72
2023-05-07T05:27:26.194Z,5.43
2023-05-07T05:32:29.878Z,4.60
2023-05-07T05:37:34.315Z,10.00
2023-05-07T05:42:40.925Z,18.50
2023-05-07T05:47:46.794Z,17.47
2023-05-07T05:52:51.702Z,10.43
2023-05-07T05:57:57.204Z,4.78
2023-05-07T06:03:01.977Z,3.85
2023-05-07T06:08:06.641Z,4.18
2023-05-07T06:13:11.946Z,3.90
2023-05-07T06:18:16.055Z,3.47
2023-05-07T06:23:20.040Z,4.90
2023-05-07T06:28:23.521Z,4.88
2023-05-07T06:33:28.005Z,3.17
2023-05-07T06:38:31.724Z,3.15
2023-05-07T06:43:35.758Z,3.65
2023-05-07T06:48:58.152Z,3.35
2023-05-07T06:54:05.656Z,2.50
2023-05-07T06:59:11.036Z,3.35
2023-05-07T07:04:17.828Z,2.78
2023-05-07T07:09:26.149Z,3.20
2023-05-07T07:14:30.907Z,3.80
2023-05-07T07:19:34.704Z,4.00
2023-05-07T07:24:40.195Z,3.65
2023-05-07T07:29:47.600Z,4.55
2023-05-07T07:34:51.629Z,4.10
2023-05-07T07:39:55.391Z,4.55
2023-05-07T07:44:59.553Z,4.90
2023-05-07T07:50:07.614Z,4.38
2023-05-07T07:55:11.718Z,4.75
2023-05-07T08:00:18.043Z,3.60
2023-05-07T08:05:21.729Z,3.38
2023-05-07T08:10:27.310Z,3.30
2023-05-07T08:15:37.613Z,2.90
2023-05-07T08:20:42.726Z,3.25
2023-05-07T08:25:52.754Z,3.60
2023-05-07T08:36:10.269Z,2.70
2023-05-07T08:41:14.912Z,2.85
2023-05-07T08:46:22.753Z,3.35
2023-05-07T08:51:32.663Z,2.70
2023-05-07T08:56:37.028Z,3.00
2023-05-07T09:01:42.079Z,3.45
2023-05-07T09:06:46.647Z,3.33
2023-05-07T09:12:00.933Z,4.40
2023-05-07T09:17:06.979Z,2.80
2023-05-07T09:22:11.374Z,2.97
2023-05-07T09:27:27.210Z,3.40
2023-05-07T09:32:41.523Z,2.65
2023-05-07T09:37:51.960Z,3.10
2023-05-07T09:42:56.389Z,2.65
2023-05-07T09:48:04.394Z,2.53
2023-05-07T09:53:11.385Z,2.47
2023-05-07T09:58:18.930Z,2.60
2023-05-07T10:03:25.450Z,2.60
2023-05-07T10:08:37.025Z,3.38
2023-05-07T10:13:43.263Z,3.22
2023-05-07T10:18:49.694Z,2.83
2023-05-07T10:24:15.389Z,2.92
2023-05-07T10:29:34.425Z,3.47
2023-05-07T10:34:43.561Z,3.22
2023-05-07T10:39:48.149Z,3.42
2023-05-07T10:44:52.444Z,3.80
2023-05-07T10:50:08.956Z,3.42
2023-05-07T10:55:18.772Z,3.83
2023-05-07T11:00:44.005Z,3.55
2023-05-07T11:06:14.960Z,4.18
2023-05-07T11:11:49.080Z,3.60
2023-05-07T11:17:09.295Z,3.70
2023-05-07T11:22:37.004Z,3.33
2023-05-07T11:27:52.392Z,3.72
2023-05-07T11:32:56.636Z,4.40
2023-05-07T11:38:02.302Z,3.85
2023-05-07T11:43:13.443Z,4.03
2023-05-07T11:48:18.045Z,4.20
2023-05-07T11:53:26.422Z,4.38
2023-05-07T11:58:31.143Z,4.20
2023-05-07T12:03:36.449Z,3.38
2023-05-07T12:08:43.666Z,3.47
2023-05-07T12:13:48.659Z,3.13
2023-05-07T12:18:54.031Z,3.35
2023-05-07T12:23:59.299Z,3.35
2023-05-07T12:29:04.394Z,3.25
2023-05-07T12:34:07.543Z,3.25
2023-05-07T12:39:12.499Z,2.90
2023-05-07T12:44:16.944Z,2.75
2023-05-07T12:49:20.837Z,3.33
2023-05-07T12:54:39.012Z,2.67
2023-05-07T12:59:43.769Z,2.17
2023-05-07T13:04:49.475Z,2.30
2023-05-07T13:09:53.953Z,2.70
2023-05-07T13:14:58.521Z,2.30
2023-05-07T13:20:01.688Z,2.75
2023-05-07T13:25:07.185Z,2.43
2023-05-07T13:30:11.377Z,3.15
2023-05-07T13:35:15.127Z,2.45
2023-05-07T13:40:19.518Z,2.50
2023-05-07T13:45:27.094Z,2.67
2023-05-07T13:50:31.296Z,2.80
2023-05-07T13:55:34.547Z,2.35
2023-05-07T14:00:37.892Z,2.45
2023-05-07T14:05:41.931Z,2.30
2023-05-07T14:10:45.693Z,2.80
2023-05-07T14:15:50.317Z,2.67
2023-05-07T14:20:54.268Z,2.53
2023-05-07T14:25:58.461Z,1.98
2023-05-07T14:31:02.789Z,1.92
2023-05-07T14:36:07.185Z,2.03
2023-05-07T14:41:10.925Z,1.70
2023-05-07T14:46:14.638Z,2.35
2023-05-07T14:51:18.591Z,1.85
2023-05-07T14:56:23.416Z,1.70
2023-05-07T15:01:28.117Z,2.03
2023-05-07T15:06:32.708Z,2.08
2023-05-07T15:11:36.745Z,2.30
2023-05-07T15:16:41.865Z,2.10
2023-05-07T15:21:46.089Z,1.60
2023-05-07T15:26:49.964Z,1.70
2023-05-07T15:31:53.655Z,1.70
2023-05-07T15:36:58.399Z,1.88
2023-05-07T15:42:02.568Z,1.90
2023-05-07T15:47:08.203Z,2.08
2023-05-07T15:52:14.969Z,1.73
2023-05-07T15:57:20.265Z,1.35
2023-05-07T16:02:26.297Z,1.10
2023-05-07T16:07:30.590Z,1.60
2023-05-07T16:12:34.850Z,1.80
2023-05-07T16:17:39.112Z,1.60
2023-05-07T16:22:43.362Z,1.80
2023-05-07T16:27:48.059Z,1.40
2023-05-07T16:32:52.743Z,2.20
2023-05-07T16:37:56.873Z,2.05
2023-05-07T16:43:01.047Z,2.10
2023-05-07T16:48:05.900Z,1.70
2023-05-07T16:53:10.071Z,1.40
2023-05-07T16:58:13.698Z,1.75
2023-05-07T17:03:17.720Z,2.03
2023-05-07T17:08:21.295Z,1.90
2023-05-07T17:13:25.603Z,1.77
2023-05-07T17:18:31.027Z,1.70
2023-05-07T17:23:34.863Z,2.00
2023-05-07T17:28:38.574Z,1.60
2023-05-07T17:33:42.606Z,2.15
2023-05-07T17:38:46.032Z,1.95
2023-05-07T17:43:49.746Z,2.45
2023-05-07T17:48:53.032Z,2.58
2023-05-07T17:53:57.130Z,2.85
2023-05-07T17:59:00.759Z,3.80
2023-05-07T18:04:05.332Z,5.22
2023-05-07T18:09:09.323Z,6.32
2023-05-07T18:14:13.602Z,4.40
2023-05-07T18:19:17.267Z,3.95
2023-05-07T18:24:20.519Z,2.67
2023-05-07T18:29:24.760Z,2.83
2023-05-07T18:34:28.601Z,2.88
2023-05-07T18:39:32.724Z,3.03
2023-05-07T18:44:38.668Z,3.13
2023-05-07T18:49:42.486Z,3.03
2023-05-07T18:54:46.152Z,2.67
2023-05-07T18:59:49.964Z,3.53
2023-05-07T19:04:53.537Z,3.97
2023-05-07T19:10:04.765Z,3.95
2023-05-07T19:15:10.466Z,3.92
2023-05-07T19:20:14.211Z,3.65
2023-05-07T19:25:18.501Z,3.20
2023-05-07T19:30:22.189Z,3.47
2023-05-07T19:35:25.810Z,3.33
2023-05-07T19:40:29.869Z,3.53
2023-05-07T19:45:33.404Z,3.55
2023-05-07T19:50:37.807Z,3.35
2023-05-07T19:55:41.747Z,3.80
2023-05-07T20:00:45.951Z,3.20
2023-05-07T20:05:51.029Z,3.60
2023-05-07T20:10:56.069Z,3.40
2023-05-07T20:16:01.583Z,3.60
2023-05-07T20:21:05.815Z,4.00
2023-05-07T20:26:09.522Z,4.22
2023-05-07T20:31:13.126Z,4.57
2023-05-07T20:36:17.132Z,4.18
2023-05-07T20:41:27.450Z,4.20
2023-05-07T20:46:33.253Z,4.00
2023-05-07T20:51:37.277Z,4.53
2023-05-07T20:56:41.611Z,4.50
2023-05-07T21:01:45.270Z,4.43
2023-05-07T21:06:49.099Z,4.38
2023-05-07T21:11:53.355Z,4.50
2023-05-07T21:16:57.172Z,4.35
2023-05-07T21:22:01.316Z,4.18
2023-05-07T21:27:04.905Z,3.78
2023-05-07T21:32:08.722Z,4.13
2023-05-07T21:37:12.105Z,4.03
2023-05-07T21:42:15.236Z,4.70
2023-05-07T21:47:19.377Z,3.97
2023-05-07T21:52:26.444Z,3.83
2023-05-07T21:57:30.262Z,3.67
2023-05-07T22:02:34.299Z,3.47
2023-05-07T22:07:38.194Z,3.60
2023-05-07T22:12:42.123Z,3.28
2023-05-07T22:17:46.135Z,3.80
2023-05-07T22:22:52.742Z,3.28
2023-05-07T22:27:56.149Z,3.77
2023-05-07T22:32:59.574Z,3.33
2023-05-07T22:38:03.268Z,3.97
2023-05-07T22:43:07.217Z,3.90
2023-05-07T22:48:11.671Z,3.53
2023-05-07T22:53:15.759Z,3.30
2023-05-07T22:58:19.303Z,3.47
2023-05-07T23:03:23.682Z,3.90
2023-05-07T23:08:27.970Z,3.55
2023-05-07T23:13:32.208Z,3.97
2023-05-07T23:18:36.669Z,3.28
2023-05-07T23:23:39.828Z,3.38
2023-05-07T23:28:42.969Z,3.10
2023-05-07T23:33:46.018Z,3.40
2023-05-07T23:38:49.675Z,2.90
2023-05-07T23:43:54.015Z,2.88
2023-05-07T23:48:57.095Z,2.85
2023-05-07T23:54:03.245Z,2.80
2023-05-07T23:59:07.131Z,2.80
